Mc Cutchenville, Ohio
Current Conditions -  °F | °C
As of 7:53 PM on Wednesday 17 Dec 2014 (Local Time) from KFDY Reporting Station
Overcast Overcast  
Wind Chill: 17°   Ceiling: 2400
Heat Index: 29°   Visibility: 10mi
Dew Point: 22°   Wind: 16mph
Humidity: 75%   Direction: 250°WSW
Pressure: 30.19"   Gusts: NA
Location:  40.988°N, 83.2626°W
Report Text: KFDY 180053Z AUTO 25014KT 10SM OVC024 M02/M06 A3019 RMK AO2 SLP228 T10171056
Loading
Personal Weather Stations






























Interactive Weather Map New forecast layout! Learn more

10-Day Weather Forecast

Advertisements
Track Severe Weather on mobile